Погода Верхнее Красноена 2 недели

Смоленская область, Россия

22 мая-04 июня
  • 22мая
    Сегодня
    +9°
    +25°
    Небольшая облачность, возможен дождь с грозой
    ВремяПогодаТемператураВлажностьДавлениеВетер, м/сВероятность осадков
    00:00Ясно и безоблачно+11°C90 %750 мм0.6 м/с2 %
    03:00Ясно и безоблачно+10°C77 %750 мм0.7 м/с2 %
    06:00Ясно и безоблачно+10°C77 %751 мм0.8 м/с2 %
    09:00Ясно и безоблачно+18°C74 %751 мм1.3 м/с2 %
    12:00Ясно и безоблачно+23°C63 %751 мм2.3 м/с3 %
    15:00Небольшая облачность, возможен дождь с грозой+24°C50 %751 мм2.4 м/с18 %
    18:00Облачно с прояснениями+23°C58 %751 мм1.6 м/с23 %
    21:00Практически безоблачно+17°C81 %751 мм0.7 м/с2 %
  • 23мая
    Четверг
    +8°
    +24°
    Ясно и безоблачно
    ВремяПогодаТемператураВлажностьДавлениеВетер, м/сВероятность осадков
    00:00Ясно и безоблачно+12°C52 %752 мм1.4 м/с2 %
    03:00Ясно и безоблачно+10°C57 %752 мм1.3 м/с2 %
    06:00Ясно и безоблачно+10°C63 %753 мм1.3 м/с2 %
    09:00Ясно и безоблачно+17°C57 %754 мм2.0 м/с2 %
    12:00Ясно и безоблачно+23°C43 %755 мм3.0 м/с1 %
    15:00Ясно и безоблачно+23°C40 %755 мм2.8 м/с2 %
    18:00Ясно и безоблачно+23°C41 %755 мм2.6 м/с2 %
    21:00Ясно и безоблачно+17°C51 %755 мм1.2 м/с2 %
  • 24мая
    Пятница
    +7°
    +22°
    Ясно и безоблачно
    ВремяПогодаТемператураВлажностьДавлениеВетер, м/сВероятность осадков
    00:00Ясно и безоблачно+12°C58 %756 мм1.5 м/с2 %
    03:00Ясно и безоблачно+10°C60 %757 мм1.2 м/с2 %
    06:00Ясно и безоблачно+9°C62 %758 мм1.3 м/с2 %
    09:00Ясно и безоблачно+16°C52 %759 мм2.1 м/с2 %
    12:00Ясно и безоблачно+20°C40 %759 мм2.7 м/с2 %
    15:00Ясно и безоблачно+21°C38 %758 мм2.4 м/с2 %
    18:00Ясно и безоблачно+22°C40 %757 мм2.3 м/с2 %
    21:00Ясно и безоблачно+15°C58 %757 мм0.8 м/с2 %
  • 25мая
    Суббота
    +8°
    +24°
    Ясно и безоблачно
    ВремяПогодаТемператураВлажностьДавлениеВетер, м/сВероятность осадков
    00:00Ясно и безоблачно+10°C60 %757 мм1.2 м/с2 %
    03:00Ясно и безоблачно+8°C69 %757 мм0.9 м/с2 %
    06:00Ясно и безоблачно+8°C72 %757 мм0.9 м/с2 %
    09:00Ясно и безоблачно+17°C59 %757 мм1.5 м/с2 %
    12:00Ясно и безоблачно+22°C47 %757 мм2.3 м/с2 %
    15:00Ясно и безоблачно+23°C41 %756 мм2.1 м/с2 %
    18:00Ясно и безоблачно+24°C41 %755 мм1.9 м/с7 %
    21:00Ясно и безоблачно+16°C62 %754 мм0.4 м/с2 %
  • 26мая
    Воскресенье
    +8°
    +26°
    Практически безоблачно
    ВремяПогодаТемператураВлажностьДавлениеВетер, м/сВероятность осадков
    00:00Ясно и безоблачно+11°C75 %755 мм0.8 м/с2 %
    03:00Ясно и безоблачно+8°C78 %755 мм0.4 м/с2 %
    06:00Ясно и безоблачно+9°C75 %755 мм0.4 м/с2 %
    09:00Небольшая облачность+18°C59 %755 мм0.3 м/с2 %
    12:00Ясно и безоблачно+24°C43 %755 мм1.1 м/с6 %
    15:00Практически безоблачно+25°C40 %755 мм0.9 м/с7 %
    18:00Небольшая облачность+25°C41 %754 мм1.1 м/с25 %
    21:00Ясно и безоблачно+17°C68 %754 мм0.2 м/с11 %
Мы используем cookies
Соглашаюсь